sensor_id;sensor_type;location;lat;lon;timestamp;pressure;altitude;pressure_sealevel;temperature;humidity
14242;BME280;7205;50.864;12.766;2023-08-01T00:00:44;96461.09;;;18.84;83.42
14242;BME280;7205;50.864;12.766;2023-08-01T00:03:10;96457.66;;;18.84;83.79
14242;BME280;7205;50.864;12.766;2023-08-01T00:05:39;96443.19;;;18.85;83.80
14242;BME280;7205;50.864;12.766;2023-08-01T00:08:10;96448.00;;;18.83;84.01
14242;BME280;7205;50.864;12.766;2023-08-01T00:10:39;96443.44;;;18.83;84.28
14242;BME280;7205;50.864;12.766;2023-08-01T00:13:07;96439.19;;;18.82;84.50
14242;BME280;7205;50.864;12.766;2023-08-01T00:15:34;96433.81;;;18.82;84.70
14242;BME280;7205;50.864;12.766;2023-08-01T00:18:01;96423.13;;;18.82;84.70
14242;BME280;7205;50.864;12.766;2023-08-01T00:20:28;96416.69;;;18.83;84.67
14242;BME280;7205;50.864;12.766;2023-08-01T00:22:55;96418.56;;;18.83;84.84
14242;BME280;7205;50.864;12.766;2023-08-01T00:25:21;96416.69;;;18.83;84.73
14242;BME280;7205;50.864;12.766;2023-08-01T00:27:49;96420.19;;;18.84;84.93
14242;BME280;7205;50.864;12.766;2023-08-01T00:30:16;96410.28;;;18.84;84.88
14242;BME280;7205;50.864;12.766;2023-08-01T00:32:43;96408.41;;;18.85;84.82
14242;BME280;7205;50.864;12.766;2023-08-01T00:35:10;96403.31;;;18.83;84.82
14242;BME280;7205;50.864;12.766;2023-08-01T00:37:37;96407.06;;;18.82;84.80
14242;BME280;7205;50.864;12.766;2023-08-01T00:40:06;96412.44;;;18.82;84.76
14242;BME280;7205;50.864;12.766;2023-08-01T00:42:35;96395.81;;;18.80;84.72
14242;BME280;7205;50.864;12.766;2023-08-01T00:45:05;96395.81;;;18.80;84.79
14242;BME280;7205;50.864;12.766;2023-08-01T00:47:32;96388.06;;;18.79;84.96
14242;BME280;7205;50.864;12.766;2023-08-01T00:49:59;96386.44;;;18.77;84.85
14242;BME280;7205;50.864;12.766;2023-08-01T00:52:26;96393.66;;;18.77;84.93
14242;BME280;7205;50.864;12.766;2023-08-01T00:54:54;96382.41;;;18.75;85.10
14242;BME280;7205;50.864;12.766;2023-08-01T00:57:21;96372.75;;;18.74;85.29
14242;BME280;7205;50.864;12.766;2023-08-01T00:59:47;96383.72;;;18.72;85.46
14242;BME280;7205;50.864;12.766;2023-08-01T01:02:16;96378.34;;;18.67;85.84
14242;BME280;7205;50.864;12.766;2023-08-01T01:04:42;96382.91;;;18.67;86.24
14242;BME280;7205;50.864;12.766;2023-08-01T01:07:09;96382.34;;;18.65;86.48
14242;BME280;7205;50.864;12.766;2023-08-01T01:09:36;96376.69;;;18.61;86.97
14242;BME280;7205;50.864;12.766;2023-08-01T01:12:03;96380.41;;;18.60;87.13
14242;BME280;7205;50.864;12.766;2023-08-01T01:14:30;96379.88;;;18.58;87.57
14242;BME280;7205;50.864;12.766;2023-08-01T01:16:57;96367.56;;;18.57;87.81
14242;BME280;7205;50.864;12.766;2023-08-01T01:19:26;96365.69;;;18.58;87.96
14242;BME280;7205;50.864;12.766;2023-08-01T01:21:55;96362.47;;;18.56;87.99
14242;BME280;7205;50.864;12.766;2023-08-01T01:24:24;96361.44;;;18.57;88.48
14242;BME280;7205;50.864;12.766;2023-08-01T01:26:53;96354.19;;;18.57;88.63
14242;BME280;7205;50.864;12.766;2023-08-01T01:29:22;96349.66;;;18.58;88.70
14242;BME280;7205;50.864;12.766;2023-08-01T01:31:50;96343.50;;;18.57;88.67
14242;BME280;7205;50.864;12.766;2023-08-01T01:34:18;96347.25;;;18.56;88.97
14242;BME280;7205;50.864;12.766;2023-08-01T01:36:44;96335.47;;;18.57;89.14
14242;BME280;7205;50.864;12.766;2023-08-01T01:39:13;96325.84;;;18.56;89.19
14242;BME280;7205;50.864;12.766;2023-08-01T01:41:39;96337.38;;;18.57;89.16
14242;BME280;7205;50.864;12.766;2023-08-01T01:44:06;96329.34;;;18.57;89.42
14242;BME280;7205;50.864;12.766;2023-08-01T01:46:33;96329.34;;;18.57;89.37
14242;BME280;7205;50.864;12.766;2023-08-01T01:49:00;96323.19;;;18.56;89.59
14242;BME280;7205;50.864;12.766;2023-08-01T01:51:27;96314.34;;;18.56;89.64
14242;BME280;7205;50.864;12.766;2023-08-01T01:53:54;96303.66;;;18.56;89.77
14242;BME280;7205;50.864;12.766;2023-08-01T01:56:23;96303.66;;;18.56;89.82
14242;BME280;7205;50.864;12.766;2023-08-01T01:58:50;96298.31;;;18.56;90.07
14242;BME280;7205;50.864;12.766;2023-08-01T02:01:17;96287.88;;;18.54;90.06
14242;BME280;7205;50.864;12.766;2023-08-01T02:03:43;96289.72;;;18.54;90.18
14242;BME280;7205;50.864;12.766;2023-08-01T02:06:10;96278.25;;;18.53;90.14
14242;BME280;7205;50.864;12.766;2023-08-01T02:08:37;96270.22;;;18.53;90.35
14242;BME280;7205;50.864;12.766;2023-08-01T02:11:04;96268.34;;;18.54;90.31
14242;BME280;7205;50.864;12.766;2023-08-01T02:13:32;96265.94;;;18.52;90.45
14242;BME280;7205;50.864;12.766;2023-08-01T02:15:59;96247.22;;;18.52;90.50
14242;BME280;7205;50.864;12.766;2023-08-01T02:18:26;96256.31;;;18.51;90.70
14242;BME280;7205;50.864;12.766;2023-08-01T02:20:53;96252.81;;;18.51;90.58
14242;BME280;7205;50.864;12.766;2023-08-01T02:23:20;96252.00;;;18.50;90.81
14242;BME280;7205;50.864;12.766;2023-08-01T02:25:46;96239.72;;;18.49;90.83
14242;BME280;7205;50.864;12.766;2023-08-01T02:28:13;96236.22;;;18.49;90.88
14242;BME280;7205;50.864;12.766;2023-08-01T02:30:42;96234.38;;;18.49;91.19
14242;BME280;7205;50.864;12.766;2023-08-01T02:33:08;96231.97;;;18.48;91.00
14242;BME280;7205;50.864;12.766;2023-08-01T02:35:35;96226.63;;;18.48;91.15
14242;BME280;7205;50.864;12.766;2023-08-01T02:38:02;96223.13;;;18.47;91.21
14242;BME280;7205;50.864;12.766;2023-08-01T02:40:29;96221.53;;;18.46;91.31
14242;BME280;7205;50.864;12.766;2023-08-01T02:42:56;96220.72;;;18.46;91.26
14242;BME280;7205;50.864;12.766;2023-08-01T02:45:23;96217.78;;;18.47;91.50
14242;BME280;7205;50.864;12.766;2023-08-01T02:47:52;96215.91;;;18.48;91.51
14242;BME280;7205;50.864;12.766;2023-08-01T02:50:18;96208.72;;;18.48;91.74
14242;BME280;7205;50.864;12.766;2023-08-01T02:52:45;96199.63;;;18.49;91.74
14242;BME280;7205;50.864;12.766;2023-08-01T02:55:12;96192.41;;;18.50;91.68
14242;BME280;7205;50.864;12.766;2023-08-01T02:57:39;96195.88;;;18.50;91.70
14242;BME280;7205;50.864;12.766;2023-08-01T03:00:06;96194.00;;;18.51;91.76
14242;BME280;7205;50.864;12.766;2023-08-01T03:02:37;96191.34;;;18.51;91.78
14242;BME280;7205;50.864;12.766;2023-08-01T03:05:08;96173.44;;;18.51;91.67
14242;BME280;7205;50.864;12.766;2023-08-01T03:07:35;96178.78;;;18.51;91.72
14242;BME280;7205;50.864;12.766;2023-08-01T03:10:02;96166.47;;;18.50;91.65
14242;BME280;7205;50.864;12.766;2023-08-01T03:12:30;96156.59;;;18.51;91.86
14242;BME280;7205;50.864;12.766;2023-08-01T03:14:57;96146.97;;;18.50;91.65
14242;BME280;7205;50.864;12.766;2023-08-01T03:17:24;96160.34;;;18.50;91.70
14242;BME280;7205;50.864;12.766;2023-08-01T03:19:50;96163.00;;;18.50;91.78
14242;BME280;7205;50.864;12.766;2023-08-01T03:22:19;96165.69;;;18.50;91.81
14242;BME280;7205;50.864;12.766;2023-08-01T03:24:46;96172.88;;;18.49;91.90
14242;BME280;7205;50.864;12.766;2023-08-01T03:27:13;96165.69;;;18.50;92.21
14242;BME280;7205;50.864;12.766;2023-08-01T03:29:39;96170.22;;;18.49;92.19
14242;BME280;7205;50.864;12.766;2023-08-01T03:32:06;96159.50;;;18.49;92.39
14242;BME280;7205;50.864;12.766;2023-08-01T03:34:33;96156.03;;;18.49;92.34
14242;BME280;7205;50.864;12.766;2023-08-01T03:37:00;96145.34;;;18.49;92.48
14242;BME280;7205;50.864;12.766;2023-08-01T03:39:28;96144.28;;;18.50;92.76
14242;BME280;7205;50.864;12.766;2023-08-01T03:41:55;96148.81;;;18.49;92.99
14242;BME280;7205;50.864;12.766;2023-08-01T03:44:22;96141.88;;;18.48;93.08
14242;BME280;7205;50.864;12.766;2023-08-01T03:46:49;96140.25;;;18.47;93.25
14242;BME280;7205;50.864;12.766;2023-08-01T03:49:15;96136.78;;;18.47;93.46
14242;BME280;7205;50.864;12.766;2023-08-01T03:51:42;96135.97;;;18.46;93.67
14242;BME280;7205;50.864;12.766;2023-08-01T03:54:09;96127.97;;;18.46;94.07
14242;BME280;7205;50.864;12.766;2023-08-01T03:56:37;96127.41;;;18.44;94.28
14242;BME280;7205;50.864;12.766;2023-08-01T03:59:08;96128.50;;;18.43;94.76
14242;BME280;7205;50.864;12.766;2023-08-01T04:01:35;96121.25;;;18.44;94.94
14242;BME280;7205;50.864;12.766;2023-08-01T04:04:02;96120.75;;;18.42;95.35
14242;BME280;7205;50.864;12.766;2023-08-01T04:06:29;96122.34;;;18.43;95.73
14242;BME280;7205;50.864;12.766;2023-08-01T04:08:56;96128.22;;;18.45;96.11
14242;BME280;7205;50.864;12.766;2023-08-01T04:11:23;96126.34;;;18.45;96.50
14242;BME280;7205;50.864;12.766;2023-08-01T04:13:51;96109.81;;;18.48;96.85
14242;BME280;7205;50.864;12.766;2023-08-01T04:16:18;96113.81;;;18.51;97.08
14242;BME280;7205;50.864;12.766;2023-08-01T04:18:45;96109.00;;;18.53;97.33
14242;BME280;7205;50.864;12.766;2023-08-01T04:21:14;96098.84;;;18.55;97.44
14242;BME280;7205;50.864;12.766;2023-08-01T04:23:41;96102.88;;;18.57;97.87
14242;BME280;7205;50.864;12.766;2023-08-01T04:26:08;96102.34;;;18.60;98.03
14242;BME280;7205;50.864;12.766;2023-08-01T04:28:35;96100.22;;;18.67;98.31
14242;BME280;7205;50.864;12.766;2023-08-01T04:31:03;96095.16;;;18.71;98.60
14242;BME280;7205;50.864;12.766;2023-08-01T04:33:29;96090.88;;;18.75;98.43
14242;BME280;7205;50.864;12.766;2023-08-01T04:35:56;96089.53;;;18.77;98.30
14242;BME280;7205;50.864;12.766;2023-08-01T04:38:23;96076.97;;;18.78;98.16
14242;BME280;7205;50.864;12.766;2023-08-01T04:40:50;96076.16;;;18.77;97.89
14242;BME280;7205;50.864;12.766;2023-08-01T04:43:16;96068.97;;;18.78;98.16
14242;BME280;7205;50.864;12.766;2023-08-01T04:45:43;96068.41;;;18.76;97.82
14242;BME280;7205;50.864;12.766;2023-08-01T04:48:11;96061.22;;;18.77;97.89
14242;BME280;7205;50.864;12.766;2023-08-01T04:50:38;96062.00;;;18.77;97.86
14242;BME280;7205;50.864;12.766;2023-08-01T04:53:05;96055.84;;;18.77;97.86
14242;BME280;7205;50.864;12.766;2023-08-01T04:55:32;96050.25;;;18.78;98.01
14242;BME280;7205;50.864;12.766;2023-08-01T04:57:58;96055.59;;;18.78;97.77
14242;BME280;7205;50.864;12.766;2023-08-01T05:00:25;96051.84;;;18.79;97.98
14242;BME280;7205;50.864;12.766;2023-08-01T05:02:52;96055.06;;;18.81;98.16
14242;BME280;7205;50.864;12.766;2023-08-01T05:05:20;96048.13;;;18.85;98.26
14242;BME280;7205;50.864;12.766;2023-08-01T05:07:47;96039.00;;;18.86;98.23
14242;BME280;7205;50.864;12.766;2023-08-01T05:10:13;96045.72;;;18.89;98.11
14242;BME280;7205;50.864;12.766;2023-08-01T05:12:40;96042.50;;;18.92;98.23
14242;BME280;7205;50.864;12.766;2023-08-01T05:15:08;96041.16;;;18.94;98.18
14242;BME280;7205;50.864;12.766;2023-08-01T05:17:34;96033.94;;;18.95;98.09
14242;BME280;7205;50.864;12.766;2023-08-01T05:20:01;96027.78;;;18.94;97.95
14242;BME280;7205;50.864;12.766;2023-08-01T05:22:31;96030.72;;;18.98;98.09
14242;BME280;7205;50.864;12.766;2023-08-01T05:24:56;96024.59;;;18.97;98.15
14242;BME280;7205;50.864;12.766;2023-08-01T05:27:23;96021.66;;;18.99;98.21
14242;BME280;7205;50.864;12.766;2023-08-01T05:29:50;96028.59;;;19.00;98.22
14242;BME280;7205;50.864;12.766;2023-08-01T05:32:17;96018.44;;;19.02;98.33
14242;BME280;7205;50.864;12.766;2023-08-01T05:34:43;96014.41;;;18.99;98.40
14242;BME280;7205;50.864;12.766;2023-08-01T05:37:10;96028.31;;;19.01;98.17
14242;BME280;7205;50.864;12.766;2023-08-01T05:39:38;96017.06;;;18.99;97.95
14242;BME280;7205;50.864;12.766;2023-08-01T05:42:06;96017.06;;;18.99;98.10
14242;BME280;7205;50.864;12.766;2023-08-01T05:44:34;96015.22;;;19.00;98.42
14242;BME280;7205;50.864;12.766;2023-08-01T05:47:01;96019.47;;;19.01;98.50
14242;BME280;7205;50.864;12.766;2023-08-01T05:49:27;96028.84;;;19.03;98.70
14242;BME280;7205;50.864;12.766;2023-08-01T05:51:55;96022.44;;;19.04;98.53
14242;BME280;7205;50.864;12.766;2023-08-01T05:54:21;96020.28;;;19.06;98.69
14242;BME280;7205;50.864;12.766;2023-08-01T05:56:50;96022.69;;;19.08;98.64
14242;BME280;7205;50.864;12.766;2023-08-01T05:59:16;96008.25;;;19.09;98.76
14242;BME280;7205;50.864;12.766;2023-08-01T06:01:43;96019.22;;;19.12;98.96
14242;BME280;7205;50.864;12.766;2023-08-01T06:04:10;96016.56;;;19.17;99.20
14242;BME280;7205;50.864;12.766;2023-08-01T06:06:37;96021.63;;;19.24;99.37
14242;BME280;7205;50.864;12.766;2023-08-01T06:09:04;96020.03;;;19.33;99.72
14242;BME280;7205;50.864;12.766;2023-08-01T06:11:30;96021.09;;;19.42;99.83
14242;BME280;7205;50.864;12.766;2023-08-01T06:14:00;96017.88;;;19.50;99.55
14242;BME280;7205;50.864;12.766;2023-08-01T06:16:27;96023.75;;;19.62;99.47
14242;BME280;7205;50.864;12.766;2023-08-01T06:18:53;96028.25;;;19.71;99.11
14242;BME280;7205;50.864;12.766;2023-08-01T06:21:20;96028.22;;;19.81;98.79
14242;BME280;7205;50.864;12.766;2023-08-01T06:23:47;96029.00;;;19.92;98.48
14242;BME280;7205;50.864;12.766;2023-08-01T06:26:14;96035.16;;;20.03;97.98
14242;BME280;7205;50.864;12.766;2023-08-01T06:28:41;96034.56;;;20.11;96.86
14242;BME280;7205;50.864;12.766;2023-08-01T06:31:09;96031.06;;;20.20;96.39
14242;BME280;7205;50.864;12.766;2023-08-01T06:33:36;96038.25;;;20.30;95.55
14242;BME280;7205;50.864;12.766;2023-08-01T06:36:05;96037.47;;;20.34;94.39
14242;BME280;7205;50.864;12.766;2023-08-01T06:38:31;96031.53;;;20.37;93.48
14242;BME280;7205;50.864;12.766;2023-08-01T06:40:58;96033.97;;;20.34;92.55
14242;BME280;7205;50.864;12.766;2023-08-01T06:43:25;96040.41;;;20.33;92.16
14242;BME280;7205;50.864;12.766;2023-08-01T06:45:52;96035.28;;;20.31;92.30
14242;BME280;7205;50.864;12.766;2023-08-01T06:48:20;96034.00;;;20.29;91.89
14242;BME280;7205;50.864;12.766;2023-08-01T06:50:47;96033.72;;;20.25;91.81
14242;BME280;7205;50.864;12.766;2023-08-01T06:53:13;96029.97;;;20.21;91.84
14242;BME280;7205;50.864;12.766;2023-08-01T06:55:40;96025.72;;;20.20;92.22
14242;BME280;7205;50.864;12.766;2023-08-01T06:58:07;96020.06;;;20.22;92.66
14242;BME280;7205;50.864;12.766;2023-08-01T07:00:34;96034.53;;;20.26;92.88
14242;BME280;7205;50.864;12.766;2023-08-01T07:03:00;96032.41;;;20.28;92.70
14242;BME280;7205;50.864;12.766;2023-08-01T07:05:29;96028.91;;;20.27;92.30
14242;BME280;7205;50.864;12.766;2023-08-01T07:07:55;96031.31;;;20.24;91.72
14242;BME280;7205;50.864;12.766;2023-08-01T07:10:23;96045.28;;;20.21;91.99
14242;BME280;7205;50.864;12.766;2023-08-01T07:12:50;96037.00;;;20.17;91.89
14242;BME280;7205;50.864;12.766;2023-08-01T07:15:17;96037.78;;;20.13;91.91
14242;BME280;7205;50.864;12.766;2023-08-01T07:17:44;96047.72;;;20.07;91.71
14242;BME280;7205;50.864;12.766;2023-08-01T07:20:11;96050.41;;;20.02;91.90
14242;BME280;7205;50.864;12.766;2023-08-01T07:22:39;96047.22;;;19.95;91.90
14242;BME280;7205;50.864;12.766;2023-08-01T07:25:07;96053.13;;;19.92;92.16
14242;BME280;7205;50.864;12.766;2023-08-01T07:27:34;96049.66;;;19.86;92.31
14242;BME280;7205;50.864;12.766;2023-08-01T07:30:03;96055.56;;;19.83;92.61
14242;BME280;7205;50.864;12.766;2023-08-01T07:32:30;96055.31;;;19.80;92.70
14242;BME280;7205;50.864;12.766;2023-08-01T07:35:00;96058.53;;;19.77;92.78
14242;BME280;7205;50.864;12.766;2023-08-01T07:37:27;96062.25;;;19.76;93.06
14242;BME280;7205;50.864;12.766;2023-08-01T07:39:56;96058.53;;;19.77;93.33
14242;BME280;7205;50.864;12.766;2023-08-01T07:42:23;96059.34;;;19.77;93.69
14242;BME280;7205;50.864;12.766;2023-08-01T07:44:49;96065.47;;;19.78;93.81
14242;BME280;7205;50.864;12.766;2023-08-01T07:47:16;96070.56;;;19.79;93.56
14242;BME280;7205;50.864;12.766;2023-08-01T07:49:43;96067.88;;;19.79;93.35
14242;BME280;7205;50.864;12.766;2023-08-01T07:52:10;96074.88;;;19.80;93.28
14242;BME280;7205;50.864;12.766;2023-08-01T07:54:36;96075.66;;;19.81;93.18
14242;BME280;7205;50.864;12.766;2023-08-01T07:57:05;96090.38;;;19.83;93.20
14242;BME280;7205;50.864;12.766;2023-08-01T07:59:32;96086.88;;;19.88;93.66
14242;BME280;7205;50.864;12.766;2023-08-01T08:01:59;96076.44;;;19.91;93.25
14242;BME280;7205;50.864;12.766;2023-08-01T08:04:26;96087.41;;;19.95;93.78
14242;BME280;7205;50.864;12.766;2023-08-01T08:06:53;96083.38;;;20.03;94.45
14242;BME280;7205;50.864;12.766;2023-08-01T08:09:20;96079.59;;;20.09;94.50
14242;BME280;7205;50.864;12.766;2023-08-01T08:11:48;96087.09;;;20.17;94.48
14242;BME280;7205;50.864;12.766;2023-08-01T08:14:16;96075.84;;;20.20;93.30
14242;BME280;7205;50.864;12.766;2023-08-01T08:16:46;96100.78;;;20.15;92.32
14242;BME280;7205;50.864;12.766;2023-08-01T08:19:12;96098.09;;;20.05;91.28
14242;BME280;7205;50.864;12.766;2023-08-01T08:21:39;96096.81;;;19.92;90.89
14242;BME280;7205;50.864;12.766;2023-08-01T08:24:06;96099.25;;;19.79;90.98
14242;BME280;7205;50.864;12.766;2023-08-01T08:26:33;96083.69;;;19.71;91.33
14242;BME280;7205;50.864;12.766;2023-08-01T08:29:04;96069.00;;;19.63;91.87
14242;BME280;7205;50.864;12.766;2023-08-01T08:31:32;96063.91;;;19.62;93.03
14242;BME280;7205;50.864;12.766;2023-08-01T08:34:04;96076.75;;;19.65;93.82
14242;BME280;7205;50.864;12.766;2023-08-01T08:36:39;96076.75;;;19.75;95.58
14242;BME280;7205;50.864;12.766;2023-08-01T08:39:06;96063.03;;;19.96;97.66
14242;BME280;7205;50.864;12.766;2023-08-01T08:41:50;96058.13;;;20.24;99.04
14242;BME280;7205;50.864;12.766;2023-08-01T08:44:19;96052.31;;;20.60;99.14
14242;BME280;7205;50.864;12.766;2023-08-01T08:46:50;96055.06;;;20.94;98.44
14242;BME280;7205;50.864;12.766;2023-08-01T08:49:20;96043.34;;;21.18;97.04
14242;BME280;7205;50.864;12.766;2023-08-01T08:51:48;96022.84;;;21.33;94.92
14242;BME280;7205;50.864;12.766;2023-08-01T08:54:23;96017.56;;;21.51;93.06
14242;BME280;7205;50.864;12.766;2023-08-01T08:56:53;96015.53;;;21.67;91.56
14242;BME280;7205;50.864;12.766;2023-08-01T08:59:29;96003.94;;;21.71;89.80
14242;BME280;7205;50.864;12.766;2023-08-01T09:01:58;96000.13;;;21.77;88.08
14242;BME280;7205;50.864;12.766;2023-08-01T09:04:32;96001.16;;;21.81;87.20
14242;BME280;7205;50.864;12.766;2023-08-01T09:07:02;96002.41;;;21.89;85.65
14242;BME280;7205;50.864;12.766;2023-08-01T09:09:32;96009.16;;;21.86;84.91
14242;BME280;7205;50.864;12.766;2023-08-01T09:12:09;96022.31;;;21.88;84.15
14242;BME280;7205;50.864;12.766;2023-08-01T09:14:38;96002.63;;;21.92;83.66
14242;BME280;7205;50.864;12.766;2023-08-01T09:17:25;95997.53;;;21.91;82.62
14242;BME280;7205;50.864;12.766;2023-08-01T09:20:03;95977.59;;;21.97;82.39
14242;BME280;7205;50.864;12.766;2023-08-01T09:22:47;95975.91;;;22.01;82.17
14242;BME280;7205;50.864;12.766;2023-08-01T09:25:33;95947.81;;;22.12;81.59
14242;BME280;7205;50.864;12.766;2023-08-01T09:28:01;95973.34;;;22.33;81.50
14242;BME280;7205;50.864;12.766;2023-08-01T09:30:44;95973.44;;;22.47;80.52
14242;BME280;7205;50.864;12.766;2023-08-01T09:33:39;95996.50;;;22.71;78.57
14242;BME280;7205;50.864;12.766;2023-08-01T09:36:20;95990.59;;;22.88;76.81
14242;BME280;7205;50.864;12.766;2023-08-01T09:39:07;95991.47;;;23.02;74.75
14242;BME280;7205;50.864;12.766;2023-08-01T09:41:36;95986.97;;;23.11;72.75
14242;BME280;7205;50.864;12.766;2023-08-01T09:44:21;95996.47;;;23.08;71.25
14242;BME280;7205;50.864;12.766;2023-08-01T09:46:56;95982.28;;;23.03;69.77
14242;BME280;7205;50.864;12.766;2023-08-01T09:50:03;95976.47;;;22.96;68.96
14242;BME280;7205;50.864;12.766;2023-08-01T09:52:33;95979.75;;;22.93;68.88
14242;BME280;7205;50.864;12.766;2023-08-01T09:55:04;95966.72;;;23.00;69.12
14242;BME280;7205;50.864;12.766;2023-08-01T09:57:34;95957.75;;;23.04;68.71
14242;BME280;7205;50.864;12.766;2023-08-01T10:00:05;95977.53;;;23.13;68.57
14242;BME280;7205;50.864;12.766;2023-08-01T10:02:55;95970.38;;;23.22;68.89
14242;BME280;7205;50.864;12.766;2023-08-01T10:05:38;95977.81;;;23.30;68.45
14242;BME280;7205;50.864;12.766;2023-08-01T10:08:24;95975.44;;;23.42;67.72
14242;BME280;7205;50.864;12.766;2023-08-01T10:11:02;95969.28;;;23.55;67.25
14242;BME280;7205;50.864;12.766;2023-08-01T10:13:39;95970.66;;;23.67;65.22
14242;BME280;7205;50.864;12.766;2023-08-01T10:16:21;95963.38;;;23.67;63.72
14242;BME280;7205;50.864;12.766;2023-08-01T10:18:59;95958.00;;;23.67;62.83
14242;BME280;7205;50.864;12.766;2023-08-01T10:21:43;95966.81;;;23.86;63.02
14242;BME280;7205;50.864;12.766;2023-08-01T10:24:11;95962.22;;;24.00;62.38
14242;BME280;7205;50.864;12.766;2023-08-01T10:26:44;95958.59;;;24.05;60.70
14242;BME280;7205;50.864;12.766;2023-08-01T10:29:14;95956.00;;;24.13;60.50
14242;BME280;7205;50.864;12.766;2023-08-01T10:31:55;95948.50;;;24.24;60.53
14242;BME280;7205;50.864;12.766;2023-08-01T10:34:33;95949.69;;;24.31;59.78
14242;BME280;7205;50.864;12.766;2023-08-01T10:37:38;95951.56;;;24.44;58.56
14242;BME280;7205;50.864;12.766;2023-08-01T10:40:34;95953.13;;;24.45;59.11
14242;BME280;7205;50.864;12.766;2023-08-01T10:43:19;95953.03;;;24.50;58.04
14242;BME280;7205;50.864;12.766;2023-08-01T10:46:00;95955.50;;;24.60;59.24
14242;BME280;7205;50.864;12.766;2023-08-01T10:48:59;95937.91;;;24.85;58.82
14242;BME280;7205;50.864;12.766;2023-08-01T10:51:41;95922.97;;;25.01;58.53
14242;BME280;7205;50.864;12.766;2023-08-01T10:54:27;95929.88;;;25.16;57.76
14242;BME280;7205;50.864;12.766;2023-08-01T10:57:18;95930.84;;;25.20;56.43
14242;BME280;7205;50.864;12.766;2023-08-01T10:59:54;95942.09;;;25.13;55.68
14242;BME280;7205;50.864;12.766;2023-08-01T11:02:22;95939.16;;;25.01;55.79
14242;BME280;7205;50.864;12.766;2023-08-01T11:04:57;95978.75;;;24.84;55.39
14242;BME280;7205;50.864;12.766;2023-08-01T11:07:24;96030.22;;;24.51;55.15
14242;BME280;7205;50.864;12.766;2023-08-01T11:10:04;96031.78;;;23.07;66.42
14242;BME280;7205;50.864;12.766;2023-08-01T11:12:46;96060.34;;;21.09;76.02
14242;BME280;7205;50.864;12.766;2023-08-01T11:15:28;96059.88;;;19.59;86.50
14242;BME280;7205;50.864;12.766;2023-08-01T11:18:08;96070.28;;;18.81;95.09
14242;BME280;7205;50.864;12.766;2023-08-01T11:20:43;96087.00;;;18.36;100.00
14242;BME280;7205;50.864;12.766;2023-08-01T11:23:41;96130.41;;;18.06;100.00
14242;BME280;7205;50.864;12.766;2023-08-01T11:26:25;96158.03;;;17.85;100.00
14242;BME280;7205;50.864;12.766;2023-08-01T11:28:54;96170.50;;;17.70;100.00
14242;BME280;7205;50.864;12.766;2023-08-01T11:31:29;96191.53;;;17.61;100.00
14242;BME280;7205;50.864;12.766;2023-08-01T11:34:04;96199.50;;;17.56;100.00
14242;BME280;7205;50.864;12.766;2023-08-01T11:36:31;96202.19;;;17.61;100.00
14242;BME280;7205;50.864;12.766;2023-08-01T11:38:59;96215.41;;;17.78;100.00
14242;BME280;7205;50.864;12.766;2023-08-01T11:41:28;96222.47;;;17.94;100.00
14242;BME280;7205;50.864;12.766;2023-08-01T11:44:01;96212.13;;;18.02;100.00
14242;BME280;7205;50.864;12.766;2023-08-01T11:46:31;96228.50;;;18.16;100.00
14242;BME280;7205;50.864;12.766;2023-08-01T11:48:58;96233.63;;;18.22;100.00
14242;BME280;7205;50.864;12.766;2023-08-01T11:51:28;96228.34;;;18.32;100.00
14242;BME280;7205;50.864;12.766;2023-08-01T11:53:59;96233.78;;;18.42;100.00
14242;BME280;7205;50.864;12.766;2023-08-01T11:56:28;96240.28;;;18.51;100.00
14242;BME280;7205;50.864;12.766;2023-08-01T11:58:57;96244.31;;;18.59;100.00
14242;BME280;7205;50.864;12.766;2023-08-01T12:01:25;96250.19;;;18.56;100.00
14242;BME280;7205;50.864;12.766;2023-08-01T12:03:54;96258.13;;;18.46;100.00
14242;BME280;7205;50.864;12.766;2023-08-01T12:06:22;96263.13;;;18.37;100.00
14242;BME280;7205;50.864;12.766;2023-08-01T12:08:51;96267.66;;;18.32;100.00
14242;BME280;7205;50.864;12.766;2023-08-01T12:11:20;96271.16;;;18.37;100.00
14242;BME280;7205;50.864;12.766;2023-08-01T12:13:59;96273.16;;;18.52;100.00
14242;BME280;7205;50.864;12.766;2023-08-01T12:16:26;96272.19;;;18.73;100.00
14242;BME280;7205;50.864;12.766;2023-08-01T12:19:07;96272.84;;;18.95;100.00
14242;BME280;7205;50.864;12.766;2023-08-01T12:22:30;96279.69;;;19.33;100.00
14242;BME280;7205;50.864;12.766;2023-08-01T12:25:41;96287.25;;;19.56;100.00
14242;BME280;7205;50.864;12.766;2023-08-01T12:28:19;96284.88;;;19.74;100.00
14242;BME280;7205;50.864;12.766;2023-08-01T12:30:53;96285.44;;;19.81;100.00
14242;BME280;7205;50.864;12.766;2023-08-01T12:33:32;96295.09;;;19.92;100.00
14242;BME280;7205;50.864;12.766;2023-08-01T12:40:16;96297.00;;;20.37;100.00
14242;BME280;7205;50.864;12.766;2023-08-01T12:45:58;96306.34;;;20.65;100.00
14242;BME280;7205;50.864;12.766;2023-08-01T12:48:27;96297.50;;;20.74;100.00
14242;BME280;7205;50.864;12.766;2023-08-01T12:51:14;96311.41;;;21.01;100.00
14242;BME280;7205;50.864;12.766;2023-08-01T12:53:46;96316.16;;;21.25;100.00
14242;BME280;7205;50.864;12.766;2023-08-01T12:56:16;96305.91;;;21.37;100.00
14242;BME280;7205;50.864;12.766;2023-08-01T12:58:59;96313.03;;;21.56;100.00
14242;BME280;7205;50.864;12.766;2023-08-01T13:05:47;96310.72;;;21.40;100.00
14242;BME280;7205;50.864;12.766;2023-08-01T13:08:23;96304.84;;;21.28;100.00
14242;BME280;7205;50.864;12.766;2023-08-01T13:15:08;96313.53;;;21.04;100.00
14242;BME280;7205;50.864;12.766;2023-08-01T13:17:53;96306.03;;;21.01;100.00
14242;BME280;7205;50.864;12.766;2023-08-01T13:24:56;96305.25;;;21.60;100.00
14242;BME280;7205;50.864;12.766;2023-08-01T13:47:42;96305.66;;;21.87;100.00
14242;BME280;7205;50.864;12.766;2023-08-01T13:54:54;96307.88;;;22.13;100.00
14242;BME280;7205;50.864;12.766;2023-08-01T14:08:51;96305.66;;;22.49;100.00
14242;BME280;7205;50.864;12.766;2023-08-01T14:12:16;96307.66;;;22.72;100.00